YHD weather

Dryden Regional Airport
Dryden, Ontario, Canada

Public forecast

Using degrees Celsius for public forecast. Weather courtesy of forecast.io.

METAR (pilot weather report)

Retrieved 2019/05/20 02:00 UTC (51 minutes ago):

CYHD 200200Z AUTO 04005KT 9SM CLR 10/M01 A3000 RMK SLP176

TAF (pilot weather forecast)

Retrieved 2019/05/20 02:39 UTC (12 minutes ago):

TAF CYHD 200138Z 2002/2014 04008KT P6SM FEW060 BECMG 2007/2009 32005KT RMK FCST BASED ON AUTO OBS. NXT FCST BY 200800Z